sensor_id;sensor_type;location;lat;lon;timestamp;temperature;humidity
24087;DHT22;22893;50.572;7.234;2022-08-05T00:00:29;28.00;78.10
24087;DHT22;22893;50.572;7.234;2022-08-05T00:02:56;28.00;78.00
24087;DHT22;22893;50.572;7.234;2022-08-05T00:05:24;28.00;77.70
24087;DHT22;22893;50.572;7.234;2022-08-05T00:07:52;28.00;77.40
24087;DHT22;22893;50.572;7.234;2022-08-05T00:10:19;28.00;77.40
24087;DHT22;22893;50.572;7.234;2022-08-05T00:12:48;28.00;77.80
24087;DHT22;22893;50.572;7.234;2022-08-05T00:15:16;28.00;78.00
24087;DHT22;22893;50.572;7.234;2022-08-05T00:17:43;28.00;77.70
24087;DHT22;22893;50.572;7.234;2022-08-05T00:20:11;28.00;78.10
24087;DHT22;22893;50.572;7.234;2022-08-05T00:22:38;28.00;77.80
24087;DHT22;22893;50.572;7.234;2022-08-05T00:25:06;28.00;77.80
24087;DHT22;22893;50.572;7.234;2022-08-05T00:27:34;27.90;77.80
24087;DHT22;22893;50.572;7.234;2022-08-05T00:30:01;28.00;77.90
24087;DHT22;22893;50.572;7.234;2022-08-05T00:32:29;28.00;78.50
24087;DHT22;22893;50.572;7.234;2022-08-05T00:34:56;28.00;78.40
24087;DHT22;22893;50.572;7.234;2022-08-05T00:37:24;28.00;77.80
24087;DHT22;22893;50.572;7.234;2022-08-05T00:39:51;28.00;78.60
24087;DHT22;22893;50.572;7.234;2022-08-05T00:42:33;28.00;78.90
24087;DHT22;22893;50.572;7.234;2022-08-05T00:45:02;28.00;78.80
24087;DHT22;22893;50.572;7.234;2022-08-05T00:47:30;28.00;77.70
24087;DHT22;22893;50.572;7.234;2022-08-05T00:49:57;28.00;77.40
24087;DHT22;22893;50.572;7.234;2022-08-05T00:52:25;28.00;77.70
24087;DHT22;22893;50.572;7.234;2022-08-05T00:54:53;28.00;77.30
24087;DHT22;22893;50.572;7.234;2022-08-05T00:57:20;27.90;77.10
24087;DHT22;22893;50.572;7.234;2022-08-05T00:59:48;28.00;77.50
24087;DHT22;22893;50.572;7.234;2022-08-05T01:02:15;28.00;78.30
24087;DHT22;22893;50.572;7.234;2022-08-05T01:04:43;28.00;79.20
24087;DHT22;22893;50.572;7.234;2022-08-05T01:07:10;27.90;79.60
24087;DHT22;22893;50.572;7.234;2022-08-05T01:09:38;28.00;79.80
24087;DHT22;22893;50.572;7.234;2022-08-05T01:12:10;28.00;80.10
24087;DHT22;22893;50.572;7.234;2022-08-05T01:14:56;27.90;79.80
24087;DHT22;22893;50.572;7.234;2022-08-05T01:17:29;27.90;79.90
24087;DHT22;22893;50.572;7.234;2022-08-05T01:20:31;27.90;80.00
24087;DHT22;22893;50.572;7.234;2022-08-05T01:28:56;28.00;80.00
24087;DHT22;22893;50.572;7.234;2022-08-05T01:34:09;27.90;80.10
24087;DHT22;22893;50.572;7.234;2022-08-05T01:36:49;27.90;80.00
24087;DHT22;22893;50.572;7.234;2022-08-05T01:39:17;27.90;79.90
24087;DHT22;22893;50.572;7.234;2022-08-05T01:41:47;27.90;80.00
24087;DHT22;22893;50.572;7.234;2022-08-05T01:44:16;27.90;80.00
24087;DHT22;22893;50.572;7.234;2022-08-05T01:46:45;27.90;80.20
24087;DHT22;22893;50.572;7.234;2022-08-05T01:49:17;27.90;80.20
24087;DHT22;22893;50.572;7.234;2022-08-05T01:51:43;27.90;80.00
24087;DHT22;22893;50.572;7.234;2022-08-05T01:54:12;27.90;79.80
24087;DHT22;22893;50.572;7.234;2022-08-05T01:56:42;27.90;79.90
24087;DHT22;22893;50.572;7.234;2022-08-05T01:59:12;27.90;79.80
24087;DHT22;22893;50.572;7.234;2022-08-05T02:01:41;27.90;80.20
24087;DHT22;22893;50.572;7.234;2022-08-05T02:04:10;27.90;80.00
24087;DHT22;22893;50.572;7.234;2022-08-05T02:06:38;27.90;79.80
24087;DHT22;22893;50.572;7.234;2022-08-05T02:09:06;27.80;79.70
24087;DHT22;22893;50.572;7.234;2022-08-05T02:11:47;27.90;79.80
24087;DHT22;22893;50.572;7.234;2022-08-05T02:14:24;27.90;80.00
24087;DHT22;22893;50.572;7.234;2022-08-05T02:16:52;27.90;80.00
24087;DHT22;22893;50.572;7.234;2022-08-05T02:19:32;27.80;80.00
24087;DHT22;22893;50.572;7.234;2022-08-05T02:24:49;27.90;80.20
24087;DHT22;22893;50.572;7.234;2022-08-05T02:27:17;27.80;80.10
24087;DHT22;22893;50.572;7.234;2022-08-05T02:29:46;27.90;80.10
24087;DHT22;22893;50.572;7.234;2022-08-05T02:32:17;27.90;80.10
24087;DHT22;22893;50.572;7.234;2022-08-05T02:34:45;27.90;80.10
24087;DHT22;22893;50.572;7.234;2022-08-05T02:37:14;27.90;80.10
24087;DHT22;22893;50.572;7.234;2022-08-05T02:39:43;27.80;81.10
24087;DHT22;22893;50.572;7.234;2022-08-05T02:42:13;27.80;80.10
24087;DHT22;22893;50.572;7.234;2022-08-05T02:44:42;27.80;80.00
24087;DHT22;22893;50.572;7.234;2022-08-05T02:47:11;27.80;79.90
24087;DHT22;22893;50.572;7.234;2022-08-05T02:49:41;27.80;79.40
24087;DHT22;22893;50.572;7.234;2022-08-05T02:52:17;27.80;79.30
24087;DHT22;22893;50.572;7.234;2022-08-05T02:54:45;27.80;79.80
24087;DHT22;22893;50.572;7.234;2022-08-05T02:57:16;27.80;78.90
24087;DHT22;22893;50.572;7.234;2022-08-05T02:59:46;27.80;78.80
24087;DHT22;22893;50.572;7.234;2022-08-05T03:02:16;27.60;80.70
24087;DHT22;22893;50.572;7.234;2022-08-05T03:04:46;27.50;80.90
24087;DHT22;22893;50.572;7.234;2022-08-05T03:07:17;27.50;81.00
24087;DHT22;22893;50.572;7.234;2022-08-05T03:09:45;27.50;81.30
24087;DHT22;22893;50.572;7.234;2022-08-05T03:12:35;27.40;81.50
24087;DHT22;22893;50.572;7.234;2022-08-05T03:14:59;27.30;81.90
24087;DHT22;22893;50.572;7.234;2022-08-05T03:17:27;27.40;82.20
24087;DHT22;22893;50.572;7.234;2022-08-05T03:19:54;27.40;82.30
24087;DHT22;22893;50.572;7.234;2022-08-05T03:22:22;27.30;82.70
24087;DHT22;22893;50.572;7.234;2022-08-05T03:24:51;27.30;82.20
24087;DHT22;22893;50.572;7.234;2022-08-05T03:27:19;27.30;82.00
24087;DHT22;22893;50.572;7.234;2022-08-05T03:29:48;27.30;82.00
24087;DHT22;22893;50.572;7.234;2022-08-05T03:32:16;27.30;83.10
24087;DHT22;22893;50.572;7.234;2022-08-05T03:34:45;27.20;83.50
24087;DHT22;22893;50.572;7.234;2022-08-05T03:37:13;27.20;83.30
24087;DHT22;22893;50.572;7.234;2022-08-05T03:39:59;27.10;83.40
24087;DHT22;22893;50.572;7.234;2022-08-05T03:42:23;27.10;83.50
24087;DHT22;22893;50.572;7.234;2022-08-05T03:44:50;27.00;84.30
24087;DHT22;22893;50.572;7.234;2022-08-05T03:47:18;27.00;81.30
24087;DHT22;22893;50.572;7.234;2022-08-05T03:49:45;27.00;82.10
24087;DHT22;22893;50.572;7.234;2022-08-05T03:52:17;26.70;83.20
24087;DHT22;22893;50.572;7.234;2022-08-05T03:54:56;26.50;83.90
24087;DHT22;22893;50.572;7.234;2022-08-05T03:57:26;26.50;84.60
24087;DHT22;22893;50.572;7.234;2022-08-05T04:00:03;26.40;85.00
24087;DHT22;22893;50.572;7.234;2022-08-05T04:02:28;26.30;85.40
24087;DHT22;22893;50.572;7.234;2022-08-05T04:04:58;26.20;85.90
24087;DHT22;22893;50.572;7.234;2022-08-05T04:07:26;26.10;86.10
24087;DHT22;22893;50.572;7.234;2022-08-05T04:09:59;26.00;86.40
24087;DHT22;22893;50.572;7.234;2022-08-05T04:12:23;26.00;87.10
24087;DHT22;22893;50.572;7.234;2022-08-05T04:14:52;26.10;87.60
24087;DHT22;22893;50.572;7.234;2022-08-05T04:17:21;26.00;87.50
24087;DHT22;22893;50.572;7.234;2022-08-05T04:19:49;26.00;87.80
24087;DHT22;22893;50.572;7.234;2022-08-05T04:22:16;26.00;87.50
24087;DHT22;22893;50.572;7.234;2022-08-05T04:24:44;26.00;87.40
24087;DHT22;22893;50.572;7.234;2022-08-05T04:27:13;25.90;88.10
24087;DHT22;22893;50.572;7.234;2022-08-05T04:29:41;25.90;88.20
24087;DHT22;22893;50.572;7.234;2022-08-05T04:32:09;25.80;88.50
24087;DHT22;22893;50.572;7.234;2022-08-05T04:34:37;26.00;88.00
24087;DHT22;22893;50.572;7.234;2022-08-05T04:37:04;26.10;87.70
24087;DHT22;22893;50.572;7.234;2022-08-05T04:39:32;26.20;87.70
24087;DHT22;22893;50.572;7.234;2022-08-05T04:42:00;26.00;88.10
24087;DHT22;22893;50.572;7.234;2022-08-05T04:44:27;26.00;88.10
24087;DHT22;22893;50.572;7.234;2022-08-05T04:46:55;26.10;87.70
24087;DHT22;22893;50.572;7.234;2022-08-05T04:49:23;26.00;88.10
24087;DHT22;22893;50.572;7.234;2022-08-05T04:51:50;26.00;87.90
24087;DHT22;22893;50.572;7.234;2022-08-05T04:54:18;26.10;87.50
24087;DHT22;22893;50.572;7.234;2022-08-05T04:56:47;25.90;88.00
24087;DHT22;22893;50.572;7.234;2022-08-05T04:59:14;25.70;88.50
24087;DHT22;22893;50.572;7.234;2022-08-05T05:01:43;25.70;89.00
24087;DHT22;22893;50.572;7.234;2022-08-05T05:04:10;25.60;89.00
24087;DHT22;22893;50.572;7.234;2022-08-05T05:06:38;25.50;89.20
24087;DHT22;22893;50.572;7.234;2022-08-05T05:09:05;25.50;89.50
24087;DHT22;22893;50.572;7.234;2022-08-05T11:16:20;26.60;85.40
24087;DHT22;22893;50.572;7.234;2022-08-05T11:21:36;26.60;85.00
24087;DHT22;22893;50.572;7.234;2022-08-05T11:24:07;26.60;84.90
24087;DHT22;22893;50.572;7.234;2022-08-05T11:26:35;26.70;84.80
24087;DHT22;22893;50.572;7.234;2022-08-05T11:29:04;26.60;84.70
24087;DHT22;22893;50.572;7.234;2022-08-05T11:31:31;26.70;84.70
24087;DHT22;22893;50.572;7.234;2022-08-05T11:34:02;26.60;84.70
24087;DHT22;22893;50.572;7.234;2022-08-05T11:36:41;26.60;84.80
24087;DHT22;22893;50.572;7.234;2022-08-05T11:39:10;26.70;84.70
24087;DHT22;22893;50.572;7.234;2022-08-05T11:41:39;26.70;84.70
24087;DHT22;22893;50.572;7.234;2022-08-05T11:44:11;26.70;84.50
24087;DHT22;22893;50.572;7.234;2022-08-05T11:46:46;26.60;84.30
24087;DHT22;22893;50.572;7.234;2022-08-05T11:49:12;26.70;84.30
24087;DHT22;22893;50.572;7.234;2022-08-05T11:51:42;26.60;83.90
24087;DHT22;22893;50.572;7.234;2022-08-05T11:54:35;26.50;82.30
24087;DHT22;22893;50.572;7.234;2022-08-05T11:56:48;26.50;83.10
24087;DHT22;22893;50.572;7.234;2022-08-05T11:59:20;26.50;83.10
24087;DHT22;22893;50.572;7.234;2022-08-05T12:02:05;26.50;82.80
24087;DHT22;22893;50.572;7.234;2022-08-05T12:04:44;26.50;82.60
24087;DHT22;22893;50.572;7.234;2022-08-05T12:07:14;26.50;82.50
24087;DHT22;22893;50.572;7.234;2022-08-05T12:09:53;26.60;82.30
24087;DHT22;22893;50.572;7.234;2022-08-05T12:12:22;26.60;82.20
24087;DHT22;22893;50.572;7.234;2022-08-05T12:14:50;26.50;82.00
24087;DHT22;22893;50.572;7.234;2022-08-05T12:17:18;26.60;82.00
24087;DHT22;22893;50.572;7.234;2022-08-05T12:19:53;26.60;81.80
24087;DHT22;22893;50.572;7.234;2022-08-05T12:22:27;26.50;81.70
24087;DHT22;22893;50.572;7.234;2022-08-05T12:24:55;26.60;81.60
24087;DHT22;22893;50.572;7.234;2022-08-05T12:27:28;26.60;81.60
24087;DHT22;22893;50.572;7.234;2022-08-05T12:30:10;26.60;81.40
24087;DHT22;22893;50.572;7.234;2022-08-05T12:32:46;26.60;81.40
24087;DHT22;22893;50.572;7.234;2022-08-05T12:35:16;26.60;81.20
24087;DHT22;22893;50.572;7.234;2022-08-05T12:37:45;26.60;80.90
24087;DHT22;22893;50.572;7.234;2022-08-05T12:40:15;26.60;80.90
24087;DHT22;22893;50.572;7.234;2022-08-05T12:42:42;26.60;80.70
24087;DHT22;22893;50.572;7.234;2022-08-05T12:45:12;26.60;80.70
24087;DHT22;22893;50.572;7.234;2022-08-05T12:47:40;26.60;80.70
24087;DHT22;22893;50.572;7.234;2022-08-05T12:50:15;26.60;80.60
24087;DHT22;22893;50.572;7.234;2022-08-05T12:52:54;26.60;80.60
24087;DHT22;22893;50.572;7.234;2022-08-05T12:55:23;26.60;80.70
24087;DHT22;22893;50.572;7.234;2022-08-05T12:57:53;26.60;80.80
24087;DHT22;22893;50.572;7.234;2022-08-05T13:00:23;26.60;80.80
24087;DHT22;22893;50.572;7.234;2022-08-05T13:02:54;26.60;80.50
24087;DHT22;22893;50.572;7.234;2022-08-05T13:05:23;26.60;81.40
24087;DHT22;22893;50.572;7.234;2022-08-05T13:07:55;26.60;80.30
24087;DHT22;22893;50.572;7.234;2022-08-05T13:10:22;26.60;80.10
24087;DHT22;22893;50.572;7.234;2022-08-05T13:12:51;26.60;79.80
24087;DHT22;22893;50.572;7.234;2022-08-05T13:15:20;26.60;79.60
24087;DHT22;22893;50.572;7.234;2022-08-05T13:17:53;26.60;79.40
24087;DHT22;22893;50.572;7.234;2022-08-05T13:20:22;26.60;79.30
24087;DHT22;22893;50.572;7.234;2022-08-05T13:22:52;26.60;79.30
24087;DHT22;22893;50.572;7.234;2022-08-05T13:25:21;26.60;79.20
24087;DHT22;22893;50.572;7.234;2022-08-05T13:27:52;26.60;79.30
24087;DHT22;22893;50.572;7.234;2022-08-05T13:30:21;26.60;79.30
24087;DHT22;22893;50.572;7.234;2022-08-05T13:32:51;26.60;79.30
24087;DHT22;22893;50.572;7.234;2022-08-05T13:35:20;26.60;79.50
24087;DHT22;22893;50.572;7.234;2022-08-05T13:37:48;26.60;79.30
24087;DHT22;22893;50.572;7.234;2022-08-05T13:40:16;26.70;79.10
24087;DHT22;22893;50.572;7.234;2022-08-05T13:42:45;26.60;78.90
24087;DHT22;22893;50.572;7.234;2022-08-05T13:45:12;26.60;78.80
24087;DHT22;22893;50.572;7.234;2022-08-05T13:47:40;26.60;78.60
24087;DHT22;22893;50.572;7.234;2022-08-05T13:50:08;26.70;78.90
24087;DHT22;22893;50.572;7.234;2022-08-05T13:52:35;26.70;79.00
24087;DHT22;22893;50.572;7.234;2022-08-05T13:55:04;26.70;78.70
24087;DHT22;22893;50.572;7.234;2022-08-05T13:57:31;26.70;78.20
24087;DHT22;22893;50.572;7.234;2022-08-05T13:59:59;26.60;78.20
24087;DHT22;22893;50.572;7.234;2022-08-05T14:02:26;26.70;78.30
24087;DHT22;22893;50.572;7.234;2022-08-05T14:04:54;26.70;78.20
24087;DHT22;22893;50.572;7.234;2022-08-05T14:07:39;26.70;77.90
24087;DHT22;22893;50.572;7.234;2022-08-05T14:10:18;26.60;77.30
24087;DHT22;22893;50.572;7.234;2022-08-05T14:12:48;26.70;77.70
24087;DHT22;22893;50.572;7.234;2022-08-05T14:15:16;26.70;77.80
24087;DHT22;22893;50.572;7.234;2022-08-05T14:17:44;26.70;77.90
24087;DHT22;22893;50.572;7.234;2022-08-05T14:20:12;26.70;77.40
24087;DHT22;22893;50.572;7.234;2022-08-05T14:22:40;26.70;77.50
24087;DHT22;22893;50.572;7.234;2022-08-05T14:25:09;26.70;77.70
24087;DHT22;22893;50.572;7.234;2022-08-05T14:27:36;26.70;77.50
24087;DHT22;22893;50.572;7.234;2022-08-05T14:30:05;26.70;77.40
24087;DHT22;22893;50.572;7.234;2022-08-05T14:32:32;26.70;76.90
24087;DHT22;22893;50.572;7.234;2022-08-05T14:35:00;26.70;77.00
24087;DHT22;22893;50.572;7.234;2022-08-05T14:37:28;26.70;76.60
24087;DHT22;22893;50.572;7.234;2022-08-05T14:39:56;26.80;77.10
24087;DHT22;22893;50.572;7.234;2022-08-05T14:42:23;26.80;76.90
24087;DHT22;22893;50.572;7.234;2022-08-05T14:44:51;26.80;77.10
24087;DHT22;22893;50.572;7.234;2022-08-05T14:47:19;26.80;76.80
24087;DHT22;22893;50.572;7.234;2022-08-05T14:49:46;26.80;76.70
24087;DHT22;22893;50.572;7.234;2022-08-05T14:52:14;26.80;76.80
24087;DHT22;22893;50.572;7.234;2022-08-05T14:54:42;26.80;76.70
24087;DHT22;22893;50.572;7.234;2022-08-05T14:57:09;26.90;76.80
24087;DHT22;22893;50.572;7.234;2022-08-05T14:59:37;26.80;76.60
24087;DHT22;22893;50.572;7.234;2022-08-05T15:02:05;26.90;76.60
24087;DHT22;22893;50.572;7.234;2022-08-05T15:04:32;26.90;76.40
24087;DHT22;22893;50.572;7.234;2022-08-05T15:07:00;26.90;76.30
24087;DHT22;22893;50.572;7.234;2022-08-05T15:09:27;26.90;76.40
24087;DHT22;22893;50.572;7.234;2022-08-05T15:11:55;26.90;76.40
24087;DHT22;22893;50.572;7.234;2022-08-05T15:14:23;26.90;76.20
24087;DHT22;22893;50.572;7.234;2022-08-05T15:16:50;26.90;75.90
24087;DHT22;22893;50.572;7.234;2022-08-05T15:19:18;26.90;75.80
24087;DHT22;22893;50.572;7.234;2022-08-05T15:21:45;26.90;75.60
24087;DHT22;22893;50.572;7.234;2022-08-05T15:24:13;26.90;75.70
24087;DHT22;22893;50.572;7.234;2022-08-05T15:26:40;26.90;75.40
24087;DHT22;22893;50.572;7.234;2022-08-05T15:29:08;26.90;75.40
24087;DHT22;22893;50.572;7.234;2022-08-05T15:31:35;26.90;75.10
24087;DHT22;22893;50.572;7.234;2022-08-05T15:34:03;26.80;73.10
24087;DHT22;22893;50.572;7.234;2022-08-05T15:36:31;26.90;73.90
24087;DHT22;22893;50.572;7.234;2022-08-05T15:38:58;26.80;74.20
24087;DHT22;22893;50.572;7.234;2022-08-05T15:41:26;26.90;72.60
24087;DHT22;22893;50.572;7.234;2022-08-05T15:43:53;26.80;72.00
24087;DHT22;22893;50.572;7.234;2022-08-05T15:46:21;26.80;70.90
24087;DHT22;22893;50.572;7.234;2022-08-05T15:48:49;26.70;71.30
24087;DHT22;22893;50.572;7.234;2022-08-05T15:51:17;26.70;72.00
24087;DHT22;22893;50.572;7.234;2022-08-05T15:53:46;26.70;72.20
24087;DHT22;22893;50.572;7.234;2022-08-05T15:56:14;26.70;72.20
24087;DHT22;22893;50.572;7.234;2022-08-05T15:58:41;26.70;72.20
24087;DHT22;22893;50.572;7.234;2022-08-05T16:01:09;26.70;71.90
24087;DHT22;22893;50.572;7.234;2022-08-05T16:03:38;26.70;71.50
24087;DHT22;22893;50.572;7.234;2022-08-05T16:06:07;26.70;71.70
24087;DHT22;22893;50.572;7.234;2022-08-05T16:08:35;26.70;71.10
24087;DHT22;22893;50.572;7.234;2022-08-05T16:11:03;26.70;71.30
24087;DHT22;22893;50.572;7.234;2022-08-05T16:13:30;26.70;71.30
24087;DHT22;22893;50.572;7.234;2022-08-05T16:15:58;26.70;71.20
24087;DHT22;22893;50.572;7.234;2022-08-05T16:18:26;26.70;71.40
24087;DHT22;22893;50.572;7.234;2022-08-05T16:20:53;26.70;71.60
24087;DHT22;22893;50.572;7.234;2022-08-05T16:23:21;26.70;71.50
24087;DHT22;22893;50.572;7.234;2022-08-05T16:25:48;26.70;71.70
24087;DHT22;22893;50.572;7.234;2022-08-05T16:28:16;26.70;72.40
24087;DHT22;22893;50.572;7.234;2022-08-05T16:30:44;26.70;72.60
24087;DHT22;22893;50.572;7.234;2022-08-05T16:33:12;26.70;72.50
24087;DHT22;22893;50.572;7.234;2022-08-05T16:35:39;26.70;72.30
24087;DHT22;22893;50.572;7.234;2022-08-05T16:38:07;26.80;71.80
24087;DHT22;22893;50.572;7.234;2022-08-05T16:40:34;26.70;72.00
24087;DHT22;22893;50.572;7.234;2022-08-05T16:43:02;26.80;71.80
24087;DHT22;22893;50.572;7.234;2022-08-05T16:45:30;26.70;71.70
24087;DHT22;22893;50.572;7.234;2022-08-05T16:47:57;26.80;72.00
24087;DHT22;22893;50.572;7.234;2022-08-05T16:50:25;26.80;71.70
24087;DHT22;22893;50.572;7.234;2022-08-05T16:52:52;26.80;72.10
24087;DHT22;22893;50.572;7.234;2022-08-05T16:55:20;26.70;71.30
24087;DHT22;22893;50.572;7.234;2022-08-05T16:57:48;26.80;72.00
24087;DHT22;22893;50.572;7.234;2022-08-05T17:00:15;26.80;71.60
24087;DHT22;22893;50.572;7.234;2022-08-05T17:02:43;26.70;71.50
24087;DHT22;22893;50.572;7.234;2022-08-05T17:05:12;26.70;71.50
24087;DHT22;22893;50.572;7.234;2022-08-05T17:07:40;26.80;72.00
24087;DHT22;22893;50.572;7.234;2022-08-05T17:10:08;26.80;71.40
24087;DHT22;22893;50.572;7.234;2022-08-05T17:12:35;26.80;71.80
24087;DHT22;22893;50.572;7.234;2022-08-05T17:15:03;26.80;71.70
24087;DHT22;22893;50.572;7.234;2022-08-05T17:17:31;26.80;72.00
24087;DHT22;22893;50.572;7.234;2022-08-05T17:20:03;26.80;72.00
24087;DHT22;22893;50.572;7.234;2022-08-05T17:22:31;26.80;72.30
24087;DHT22;22893;50.572;7.234;2022-08-05T17:24:59;26.80;72.20
24087;DHT22;22893;50.572;7.234;2022-08-05T17:27:28;26.80;72.20
24087;DHT22;22893;50.572;7.234;2022-08-05T17:29:56;26.80;72.60
24087;DHT22;22893;50.572;7.234;2022-08-05T17:32:24;26.80;72.40
24087;DHT22;22893;50.572;7.234;2022-08-05T17:34:51;26.80;72.40
24087;DHT22;22893;50.572;7.234;2022-08-05T17:37:19;26.80;72.00
24087;DHT22;22893;50.572;7.234;2022-08-05T17:39:46;26.80;72.10
24087;DHT22;22893;50.572;7.234;2022-08-05T17:42:14;26.80;72.00
24087;DHT22;22893;50.572;7.234;2022-08-05T17:44:42;26.80;72.30
24087;DHT22;22893;50.572;7.234;2022-08-05T17:47:09;26.80;72.20
24087;DHT22;22893;50.572;7.234;2022-08-05T17:49:39;26.80;72.20
24087;DHT22;22893;50.572;7.234;2022-08-05T17:52:06;26.80;71.70
24087;DHT22;22893;50.572;7.234;2022-08-05T17:54:34;26.80;71.40
24087;DHT22;22893;50.572;7.234;2022-08-05T17:57:03;26.80;71.40
24087;DHT22;22893;50.572;7.234;2022-08-05T17:59:31;26.80;71.20
24087;DHT22;22893;50.572;7.234;2022-08-05T18:01:59;26.70;70.90
24087;DHT22;22893;50.572;7.234;2022-08-05T18:04:28;26.70;70.80
24087;DHT22;22893;50.572;7.234;2022-08-05T18:06:56;26.70;70.80
24087;DHT22;22893;50.572;7.234;2022-08-05T18:09:24;26.70;70.70
24087;DHT22;22893;50.572;7.234;2022-08-05T18:11:51;26.70;70.60
24087;DHT22;22893;50.572;7.234;2022-08-05T18:14:19;26.70;70.60
24087;DHT22;22893;50.572;7.234;2022-08-05T18:16:46;26.70;70.60
24087;DHT22;22893;50.572;7.234;2022-08-05T18:19:14;26.70;70.70
24087;DHT22;22893;50.572;7.234;2022-08-05T18:21:42;26.70;70.00
24087;DHT22;22893;50.572;7.234;2022-08-05T18:24:09;26.60;69.10
24087;DHT22;22893;50.572;7.234;2022-08-05T18:26:37;26.40;67.10
24087;DHT22;22893;50.572;7.234;2022-08-05T18:29:04;26.40;69.10
24087;DHT22;22893;50.572;7.234;2022-08-05T18:31:32;26.50;70.00
24087;DHT22;22893;50.572;7.234;2022-08-05T18:34:01;26.50;70.00
24087;DHT22;22893;50.572;7.234;2022-08-05T18:36:29;26.60;70.10
24087;DHT22;22893;50.572;7.234;2022-08-05T18:38:57;26.60;70.10
24087;DHT22;22893;50.572;7.234;2022-08-05T18:41:24;26.60;70.30
24087;DHT22;22893;50.572;7.234;2022-08-05T18:43:52;26.60;70.30
24087;DHT22;22893;50.572;7.234;2022-08-05T18:46:20;26.60;70.40
24087;DHT22;22893;50.572;7.234;2022-08-05T18:48:48;26.60;70.60
24087;DHT22;22893;50.572;7.234;2022-08-05T18:51:17;26.60;70.80
24087;DHT22;22893;50.572;7.234;2022-08-05T18:54:03;26.60;70.90
24087;DHT22;22893;50.572;7.234;2022-08-05T18:56:31;26.60;70.90
24087;DHT22;22893;50.572;7.234;2022-08-05T18:58:59;26.60;70.90
24087;DHT22;22893;50.572;7.234;2022-08-05T19:01:28;26.60;71.20
24087;DHT22;22893;50.572;7.234;2022-08-05T19:03:55;26.60;71.20
24087;DHT22;22893;50.572;7.234;2022-08-05T19:06:23;26.60;71.20
24087;DHT22;22893;50.572;7.234;2022-08-05T19:08:50;26.60;71.30
24087;DHT22;22893;50.572;7.234;2022-08-05T19:11:18;26.60;71.20
24087;DHT22;22893;50.572;7.234;2022-08-05T19:13:46;26.60;71.20
24087;DHT22;22893;50.572;7.234;2022-08-05T19:16:13;26.60;72.10
24087;DHT22;22893;50.572;7.234;2022-08-05T19:18:41;26.60;71.40
24087;DHT22;22893;50.572;7.234;2022-08-05T19:21:08;26.60;71.40
24087;DHT22;22893;50.572;7.234;2022-08-05T19:23:36;26.60;71.40
24087;DHT22;22893;50.572;7.234;2022-08-05T19:26:03;26.60;71.70
24087;DHT22;22893;50.572;7.234;2022-08-05T19:28:31;26.60;70.90
24087;DHT22;22893;50.572;7.234;2022-08-05T19:31:00;26.60;71.70
24087;DHT22;22893;50.572;7.234;2022-08-05T19:33:28;26.60;71.50
24087;DHT22;22893;50.572;7.234;2022-08-05T19:35:55;26.60;71.90
24087;DHT22;22893;50.572;7.234;2022-08-05T19:38:23;26.60;71.40
24087;DHT22;22893;50.572;7.234;2022-08-05T19:40:50;26.60;71.90
24087;DHT22;22893;50.572;7.234;2022-08-05T19:43:18;26.60;71.90
24087;DHT22;22893;50.572;7.234;2022-08-05T19:45:45;26.60;71.90
24087;DHT22;22893;50.572;7.234;2022-08-05T19:48:13;26.60;72.00
24087;DHT22;22893;50.572;7.234;2022-08-05T19:50:41;26.60;72.00
24087;DHT22;22893;50.572;7.234;2022-08-05T19:53:09;26.60;71.80
24087;DHT22;22893;50.572;7.234;2022-08-05T19:55:36;26.60;71.60
24087;DHT22;22893;50.572;7.234;2022-08-05T19:58:05;26.60;71.90
24087;DHT22;22893;50.572;7.234;2022-08-05T20:00:32;26.60;72.00
24087;DHT22;22893;50.572;7.234;2022-08-05T20:03:00;26.60;71.60
24087;DHT22;22893;50.572;7.234;2022-08-05T20:05:27;26.60;71.70
24087;DHT22;22893;50.572;7.234;2022-08-05T20:07:55;26.60;71.70
24087;DHT22;22893;50.572;7.234;2022-08-05T20:10:23;26.60;71.80
24087;DHT22;22893;50.572;7.234;2022-08-05T20:12:50;26.60;71.50
24087;DHT22;22893;50.572;7.234;2022-08-05T20:15:20;26.60;71.70
24087;DHT22;22893;50.572;7.234;2022-08-05T20:17:48;26.60;73.00
24087;DHT22;22893;50.572;7.234;2022-08-05T20:20:15;26.60;72.00
24087;DHT22;22893;50.572;7.234;2022-08-05T20:22:43;26.60;72.20
24087;DHT22;22893;50.572;7.234;2022-08-05T20:25:10;26.60;72.00
24087;DHT22;22893;50.572;7.234;2022-08-05T20:27:38;26.60;72.00
24087;DHT22;22893;50.572;7.234;2022-08-05T20:30:06;26.60;72.20
24087;DHT22;22893;50.572;7.234;2022-08-05T20:32:35;26.60;72.30
24087;DHT22;22893;50.572;7.234;2022-08-05T20:35:02;26.60;72.30
24087;DHT22;22893;50.572;7.234;2022-08-05T20:37:30;26.60;72.30
24087;DHT22;22893;50.572;7.234;2022-08-05T20:39:57;26.60;72.30
24087;DHT22;22893;50.572;7.234;2022-08-05T20:42:25;26.60;73.30
24087;DHT22;22893;50.572;7.234;2022-08-05T20:44:52;26.60;72.50
24087;DHT22;22893;50.572;7.234;2022-08-05T20:47:20;26.60;72.50
24087;DHT22;22893;50.572;7.234;2022-08-05T20:49:47;26.60;72.70
24087;DHT22;22893;50.572;7.234;2022-08-05T20:52:15;26.60;72.40
24087;DHT22;22893;50.572;7.234;2022-08-05T20:55:02;26.60;72.30
24087;DHT22;22893;50.572;7.234;2022-08-05T20:57:30;26.50;72.10
24087;DHT22;22893;50.572;7.234;2022-08-05T20:59:57;26.60;72.00
24087;DHT22;22893;50.572;7.234;2022-08-05T21:02:25;26.50;72.00
24087;DHT22;22893;50.572;7.234;2022-08-05T21:04:53;26.60;72.10
24087;DHT22;22893;50.572;7.234;2022-08-05T21:07:20;26.50;72.50
24087;DHT22;22893;50.572;7.234;2022-08-05T21:09:48;26.50;72.50
24087;DHT22;22893;50.572;7.234;2022-08-05T21:12:17;26.50;72.70
24087;DHT22;22893;50.572;7.234;2022-08-05T21:14:45;26.50;72.60
24087;DHT22;22893;50.572;7.234;2022-08-05T21:17:13;26.50;72.80
24087;DHT22;22893;50.572;7.234;2022-08-05T21:19:41;26.50;73.60
24087;DHT22;22893;50.572;7.234;2022-08-05T21:22:08;26.50;72.80
24087;DHT22;22893;50.572;7.234;2022-08-05T21:24:36;26.50;72.90
24087;DHT22;22893;50.572;7.234;2022-08-05T21:27:03;26.50;72.90
24087;DHT22;22893;50.572;7.234;2022-08-05T21:29:31;26.50;72.80
24087;DHT22;22893;50.572;7.234;2022-08-05T21:32:00;26.50;72.80
24087;DHT22;22893;50.572;7.234;2022-08-05T21:34:28;26.50;72.20
24087;DHT22;22893;50.572;7.234;2022-08-05T21:36:56;26.40;72.70
24087;DHT22;22893;50.572;7.234;2022-08-05T21:39:24;26.50;72.80
24087;DHT22;22893;50.572;7.234;2022-08-05T21:41:51;26.50;72.80
24087;DHT22;22893;50.572;7.234;2022-08-05T21:44:20;26.50;72.90
24087;DHT22;22893;50.572;7.234;2022-08-05T21:46:48;26.50;73.00
24087;DHT22;22893;50.572;7.234;2022-08-05T21:49:15;26.40;72.50
24087;DHT22;22893;50.572;7.234;2022-08-05T21:51:43;26.50;72.80
24087;DHT22;22893;50.572;7.234;2022-08-05T21:54:10;26.50;72.70
24087;DHT22;22893;50.572;7.234;2022-08-05T21:56:38;26.50;72.80
24087;DHT22;22893;50.572;7.234;2022-08-05T21:59:05;26.50;72.50